VOZ1542 YBBN-YSSY
Flight info
| Callsign | VOZ1542 |
|---|---|
| Flight time | 1h 14m |
| Altitude | 32000 |
| Route | BN H91 IGDAM H652 TESAT |
| Aircraft | B738/M-SDE2E3FGHIRWXY/LB1 |
Departure
| Time | 2026-04-22 07:22 |
|---|---|
| Airport | Brisbane International Airport (YBBN) |
Arrival
| Time | 2026-04-22 08:36 |
|---|---|
| Airport | Sydney Kingsford Smith International Airport (YSSY) |
| Time | Latitude | Longitude | Altitude | Speed | Heading |
|---|---|---|---|---|---|
| 2026-04-22 06:20 | -27.38789 | 153.13415 | 20 ft | 0 kts | 164° |
| 2026-04-22 06:26 | -27.38797 | 153.13416 | 20 ft | 4 kts | 174° |
| 2026-04-22 06:26 | -27.38816 | 153.13379 | 20 ft | 10 kts | 294° |
| 2026-04-22 06:26 | -27.38757 | 153.13360 | 20 ft | 11 kts | 27° |
| 2026-04-22 06:27 | -27.38689 | 153.13399 | 20 ft | 11 kts | 27° |
| 2026-04-22 06:27 | -27.38624 | 153.13436 | 22 ft | 10 kts | 27° |
| 2026-04-22 06:27 | -27.38558 | 153.13462 | 20 ft | 10 kts | 355° |
| 2026-04-22 06:27 | -27.38505 | 153.13412 | 20 ft | 11 kts | 297° |
| 2026-04-22 06:28 | -27.38462 | 153.13317 | 20 ft | 16 kts | 297° |
| 2026-04-22 06:28 | -27.38392 | 153.13202 | 20 ft | 20 kts | 330° |
| 2026-04-22 06:28 | -27.38255 | 153.13247 | 20 ft | 23 kts | 25° |
| 2026-04-22 06:28 | -27.38141 | 153.13141 | 20 ft | 26 kts | 297° |
| 2026-04-22 06:29 | -27.38054 | 153.12951 | 21 ft | 29 kts | 297° |
| 2026-04-22 06:29 | -27.38135 | 153.12821 | 21 ft | 22 kts | 206° |
| 2026-04-22 06:29 | -27.38271 | 153.12744 | 21 ft | 22 kts | 207° |
| 2026-04-22 06:29 | -27.38403 | 153.12669 | 22 ft | 21 kts | 207° |
| 2026-04-22 06:30 | -27.38531 | 153.12595 | 22 ft | 20 kts | 207° |
| 2026-04-22 06:30 | -27.38655 | 153.12524 | 20 ft | 20 kts | 206° |
| 2026-04-22 06:30 | -27.38740 | 153.12477 | 20 ft | 0 kts | 206° |
| 2026-04-22 06:30 | -27.38742 | 153.12475 | 20 ft | 3 kts | 207° |
| 2026-04-22 06:31 | -27.38864 | 153.12404 | 21 ft | 39 kts | 207° |
| 2026-04-22 06:31 | -27.38953 | 153.12354 | 20 ft | 0 kts | 207° |
| 2026-04-22 06:32 | -27.38953 | 153.12353 | 20 ft | 0 kts | 207° |
| 2026-04-22 06:34 | -27.38957 | 153.12352 | 20 ft | 3 kts | 206° |
| 2026-04-22 06:34 | -27.39023 | 153.12314 | 21 ft | 18 kts | 207° |
| 2026-04-22 06:34 | -27.39135 | 153.12227 | 20 ft | 20 kts | 248° |
| 2026-04-22 06:35 | -27.39055 | 153.12120 | 22 ft | 19 kts | 327° |
| 2026-04-22 06:35 | -27.38977 | 153.12002 | 22 ft | 19 kts | 335° |
| 2026-04-22 06:35 | -27.38886 | 153.12087 | 21 ft | 18 kts | 54° |
| 2026-04-22 06:35 | -27.38795 | 153.12091 | 23 ft | 5 kts | 319° |
| 2026-04-22 06:36 | -27.38768 | 153.12063 | 22 ft | 5 kts | 310° |
| 2026-04-22 06:36 | -27.38760 | 153.12023 | 20 ft | 5 kts | 278° |
| 2026-04-22 06:36 | -27.38740 | 153.12006 | 20 ft | 0 kts | 342° |
| 2026-04-22 06:36 | -27.38729 | 153.12000 | 20 ft | 0 kts | 335° |
| 2026-04-22 06:37 | -27.38722 | 153.11996 | 20 ft | 1 kts | 335° |
| 2026-04-22 06:37 | -27.38719 | 153.11995 | 22 ft | 0 kts | 335° |
| 2026-04-22 06:37 | -27.38718 | 153.11994 | 20 ft | 0 kts | 335° |
| 2026-04-22 07:13 | -27.38722 | 153.11996 | 20 ft | 3 kts | 338° |
| 2026-04-22 07:13 | -27.38745 | 153.12002 | 22 ft | 4 kts | 327° |
| 2026-04-22 07:13 | -27.38762 | 153.12018 | 20 ft | 4 kts | 274° |
| 2026-04-22 07:14 | -27.38759 | 153.12045 | 20 ft | 4 kts | 285° |
| 2026-04-22 07:14 | -27.38773 | 153.12068 | 20 ft | 4 kts | 319° |
| 2026-04-22 07:14 | -27.38792 | 153.12087 | 23 ft | 4 kts | 319° |
| 2026-04-22 07:14 | -27.38807 | 153.12102 | 22 ft | 0 kts | 319° |
| 2026-04-22 07:18 | -27.38807 | 153.12101 | 20 ft | 0 kts | 319° |
| 2026-04-22 07:18 | -27.38798 | 153.12094 | 20 ft | 3 kts | 334° |
| 2026-04-22 07:19 | -27.38770 | 153.12109 | 21 ft | 7 kts | 62° |
| 2026-04-22 07:19 | -27.38776 | 153.12183 | 20 ft | 12 kts | 105° |
| 2026-04-22 07:19 | -27.38792 | 153.12280 | 20 ft | 15 kts | 79° |
| 2026-04-22 07:19 | -27.38703 | 153.12359 | 22 ft | 19 kts | 27° |
| 2026-04-22 07:20 | -27.38571 | 153.12434 | 22 ft | 23 kts | 27° |
| 2026-04-22 07:20 | -27.38415 | 153.12523 | 22 ft | 27 kts | 27° |
| 2026-04-22 07:20 | -27.38239 | 153.12624 | 22 ft | 30 kts | 27° |
| 2026-04-22 07:20 | -27.38064 | 153.12724 | 21 ft | 18 kts | 27° |
| 2026-04-22 07:21 | -27.38003 | 153.12838 | 21 ft | 21 kts | 116° |
| 2026-04-22 07:21 | -27.38075 | 153.12998 | 21 ft | 24 kts | 120° |
| 2026-04-22 07:21 | -27.38229 | 153.12994 | 22 ft | 26 kts | 206° |
| 2026-04-22 07:21 | -27.38446 | 153.12871 | 21 ft | 58 kts | 207° |
| 2026-04-22 07:22 | -27.39069 | 153.12516 | 19 ft | 142 kts | 207° |
| 2026-04-22 07:22 | -27.40128 | 153.11906 | 327 ft | 186 kts | 204° |
| 2026-04-22 07:22 | -27.41319 | 153.11268 | 1410 ft | 190 kts | 203° |
| 2026-04-22 07:22 | -27.42552 | 153.10883 | 2437 ft | 193 kts | 173° |
| 2026-04-22 07:23 | -27.43844 | 153.11427 | 2896 ft | 207 kts | 151° |
| 2026-04-22 07:23 | -27.45119 | 153.12228 | 3529 ft | 213 kts | 152° |
| 2026-04-22 07:23 | -27.46448 | 153.13037 | 4174 ft | 220 kts | 153° |
| 2026-04-22 07:23 | -27.47811 | 153.13844 | 5005 ft | 222 kts | 153° |
| 2026-04-22 07:24 | -27.49196 | 153.14621 | 5877 ft | 224 kts | 161° |
| 2026-04-22 07:24 | -27.50764 | 153.14730 | 6427 ft | 240 kts | 189° |
| 2026-04-22 07:24 | -27.52460 | 153.14317 | 6861 ft | 260 kts | 192° |
| 2026-04-22 07:24 | -27.54244 | 153.13856 | 7650 ft | 265 kts | 192° |
| 2026-04-22 07:25 | -27.56047 | 153.13373 | 8511 ft | 267 kts | 195° |
| 2026-04-22 07:25 | -27.57824 | 153.12703 | 9338 ft | 271 kts | 199° |
| 2026-04-22 07:25 | -27.59614 | 153.11972 | 10148 ft | 275 kts | 199° |
| 2026-04-22 07:25 | -27.61452 | 153.11224 | 10622 ft | 292 kts | 199° |
| 2026-04-22 07:26 | -27.63466 | 153.10476 | 10817 ft | 317 kts | 197° |
| 2026-04-22 07:26 | -27.65649 | 153.09748 | 11081 ft | 337 kts | 196° |
| 2026-04-22 07:26 | -27.67899 | 153.09015 | 11673 ft | 344 kts | 196° |
| 2026-04-22 07:26 | -27.70205 | 153.08261 | 12443 ft | 346 kts | 196° |
| 2026-04-22 07:27 | -27.72514 | 153.07499 | 13248 ft | 347 kts | 197° |
| 2026-04-22 07:27 | -27.74841 | 153.06726 | 13959 ft | 350 kts | 197° |
| 2026-04-22 07:27 | -27.77193 | 153.05942 | 14637 ft | 354 kts | 197° |
| 2026-04-22 07:27 | -27.79564 | 153.05149 | 15338 ft | 357 kts | 197° |
| 2026-04-22 07:28 | -27.84320 | 153.03412 | 16701 ft | 361 kts | 201° |
| 2026-04-22 07:28 | -27.86672 | 153.02375 | 17303 ft | 365 kts | 202° |
| 2026-04-22 07:28 | -27.89008 | 153.01319 | 17899 ft | 368 kts | 202° |
| 2026-04-22 07:29 | -27.91390 | 153.00247 | 18518 ft | 370 kts | 202° |
| 2026-04-22 07:29 | -27.93755 | 152.99193 | 19078 ft | 374 kts | 202° |
| 2026-04-22 07:29 | -27.96184 | 152.98121 | 19679 ft | 376 kts | 202° |
| 2026-04-22 07:29 | -27.98629 | 152.97047 | 20237 ft | 379 kts | 202° |
| 2026-04-22 07:30 | -28.01096 | 152.95965 | 20756 ft | 382 kts | 203° |
| 2026-04-22 07:30 | -28.03583 | 152.94875 | 21292 ft | 384 kts | 203° |
| 2026-04-22 07:30 | -28.06078 | 152.93782 | 21827 ft | 386 kts | 203° |
| 2026-04-22 07:30 | -28.08591 | 152.92681 | 22286 ft | 389 kts | 203° |
| 2026-04-22 07:31 | -28.11124 | 152.91564 | 22722 ft | 392 kts | 203° |
| 2026-04-22 07:31 | -28.13635 | 152.90447 | 23190 ft | 394 kts | 203° |
| 2026-04-22 07:31 | -28.16191 | 152.89309 | 23639 ft | 396 kts | 204° |
| 2026-04-22 07:31 | -28.18763 | 152.88161 | 24050 ft | 399 kts | 204° |
| 2026-04-22 07:32 | -28.21352 | 152.87006 | 24471 ft | 401 kts | 204° |
| 2026-04-22 07:32 | -28.23951 | 152.85847 | 24915 ft | 402 kts | 204° |
| 2026-04-22 07:32 | -28.26558 | 152.84684 | 25322 ft | 404 kts | 204° |
| 2026-04-22 07:32 | -28.29185 | 152.83511 | 25699 ft | 407 kts | 204° |
| 2026-04-22 07:33 | -28.31819 | 152.82335 | 26089 ft | 408 kts | 204° |
| 2026-04-22 07:33 | -28.34469 | 152.81152 | 26470 ft | 410 kts | 204° |
| 2026-04-22 07:33 | -28.37133 | 152.79962 | 26833 ft | 412 kts | 204° |
| 2026-04-22 07:33 | -28.39773 | 152.78782 | 27131 ft | 415 kts | 204° |
| 2026-04-22 07:34 | -28.42456 | 152.77582 | 27526 ft | 415 kts | 205° |
| 2026-04-22 07:34 | -28.45135 | 152.76383 | 27987 ft | 412 kts | 205° |
| 2026-04-22 07:34 | -28.47795 | 152.75191 | 28498 ft | 409 kts | 205° |
| 2026-04-22 07:34 | -28.50441 | 152.74006 | 28892 ft | 409 kts | 205° |
| 2026-04-22 07:35 | -28.53084 | 152.72821 | 29327 ft | 407 kts | 205° |
| 2026-04-22 07:35 | -28.55716 | 152.71640 | 29798 ft | 405 kts | 205° |
| 2026-04-22 07:35 | -28.58330 | 152.70467 | 30236 ft | 403 kts | 205° |
| 2026-04-22 07:35 | -28.60933 | 152.69299 | 30695 ft | 401 kts | 206° |
| 2026-04-22 07:36 | -28.63493 | 152.68150 | 31093 ft | 400 kts | 205° |
| 2026-04-22 07:36 | -28.66073 | 152.66989 | 31467 ft | 399 kts | 206° |
| 2026-04-22 07:36 | -28.68654 | 152.65827 | 31778 ft | 399 kts | 206° |
| 2026-04-22 07:36 | -28.71239 | 152.64662 | 32119 ft | 399 kts | 206° |
| 2026-04-22 07:37 | -28.76421 | 152.62326 | 32223 ft | 401 kts | 206° |
| 2026-04-22 07:37 | -28.81570 | 152.60005 | 32222 ft | 396 kts | 206° |
| 2026-04-22 07:38 | -28.86655 | 152.57710 | 32232 ft | 396 kts | 206° |
| 2026-04-22 07:38 | -28.91769 | 152.55413 | 32221 ft | 396 kts | 206° |
| 2026-04-22 07:39 | -28.96897 | 152.53109 | 32221 ft | 396 kts | 206° |
| 2026-04-22 07:39 | -29.02019 | 152.50804 | 32218 ft | 396 kts | 206° |
| 2026-04-22 07:40 | -29.07107 | 152.48511 | 32227 ft | 396 kts | 206° |
| 2026-04-22 07:40 | -29.12234 | 152.46197 | 32227 ft | 396 kts | 206° |
| 2026-04-22 07:41 | -29.17373 | 152.43876 | 32224 ft | 397 kts | 206° |
| 2026-04-22 07:41 | -29.22513 | 152.41554 | 32219 ft | 396 kts | 206° |
| 2026-04-22 07:42 | -29.27639 | 152.39230 | 32223 ft | 396 kts | 206° |
| 2026-04-22 07:42 | -29.32725 | 152.36923 | 32217 ft | 395 kts | 206° |
| 2026-04-22 07:43 | -29.37831 | 152.34605 | 32242 ft | 395 kts | 206° |
| 2026-04-22 07:43 | -29.42941 | 152.32281 | 32241 ft | 395 kts | 206° |
| 2026-04-22 07:44 | -29.48050 | 152.29957 | 32218 ft | 395 kts | 206° |
| 2026-04-22 07:44 | -29.53116 | 152.27649 | 32228 ft | 394 kts | 206° |
| 2026-04-22 07:45 | -29.58214 | 152.25324 | 32228 ft | 395 kts | 206° |
| 2026-04-22 07:45 | -29.63315 | 152.22991 | 32217 ft | 394 kts | 206° |
| 2026-04-22 07:46 | -29.68401 | 152.20659 | 32228 ft | 394 kts | 206° |
| 2026-04-22 07:46 | -29.73469 | 152.18345 | 32240 ft | 395 kts | 205° |
| 2026-04-22 07:47 | -29.78576 | 152.15999 | 32253 ft | 395 kts | 206° |
| 2026-04-22 07:47 | -29.83693 | 152.13650 | 32244 ft | 396 kts | 206° |
| 2026-04-22 07:48 | -29.88810 | 152.11298 | 32248 ft | 396 kts | 206° |
| 2026-04-22 07:48 | -29.93912 | 152.08951 | 32251 ft | 395 kts | 206° |
| 2026-04-22 07:49 | -29.98968 | 152.06622 | 32252 ft | 394 kts | 206° |
| 2026-04-22 07:49 | -30.04047 | 152.04279 | 32251 ft | 393 kts | 206° |
| 2026-04-22 07:50 | -30.09127 | 152.01934 | 32257 ft | 393 kts | 206° |
| 2026-04-22 07:50 | -30.14163 | 151.99607 | 32261 ft | 393 kts | 206° |
| 2026-04-22 07:51 | -30.19195 | 151.97279 | 32252 ft | 393 kts | 206° |
| 2026-04-22 07:51 | -30.24267 | 151.94929 | 32259 ft | 393 kts | 206° |
| 2026-04-22 07:52 | -30.29340 | 151.92576 | 32257 ft | 393 kts | 206° |
| 2026-04-22 07:52 | -30.34420 | 151.90217 | 32255 ft | 394 kts | 206° |
| 2026-04-22 07:53 | -30.39471 | 151.87868 | 32262 ft | 394 kts | 206° |
| 2026-04-22 07:53 | -30.44564 | 151.85498 | 32260 ft | 395 kts | 206° |
| 2026-04-22 07:54 | -30.49663 | 151.83120 | 32260 ft | 395 kts | 206° |
| 2026-04-22 07:54 | -30.54762 | 151.80739 | 32265 ft | 395 kts | 206° |
| 2026-04-22 07:55 | -30.59819 | 151.78375 | 32268 ft | 394 kts | 205° |
| 2026-04-22 07:55 | -30.64910 | 151.75992 | 32266 ft | 394 kts | 205° |
| 2026-04-22 07:56 | -30.69995 | 151.73610 | 32272 ft | 394 kts | 205° |
| 2026-04-22 07:56 | -30.75079 | 151.71226 | 32267 ft | 394 kts | 205° |
| 2026-04-22 07:57 | -30.80125 | 151.68858 | 32266 ft | 394 kts | 205° |
| 2026-04-22 07:57 | -30.85199 | 151.66472 | 32271 ft | 393 kts | 205° |
| 2026-04-22 07:58 | -30.90275 | 151.64084 | 32268 ft | 393 kts | 205° |
| 2026-04-22 07:58 | -30.95350 | 151.61693 | 32271 ft | 393 kts | 205° |
| 2026-04-22 07:59 | -31.00422 | 151.59300 | 32269 ft | 393 kts | 205° |
| 2026-04-22 07:59 | -31.05461 | 151.56919 | 32265 ft | 393 kts | 205° |
| 2026-04-22 08:00 | -31.10528 | 151.54524 | 32270 ft | 393 kts | 205° |
| 2026-04-22 08:00 | -31.15589 | 151.52130 | 32271 ft | 392 kts | 205° |
| 2026-04-22 08:01 | -31.20639 | 151.49738 | 32274 ft | 391 kts | 205° |
| 2026-04-22 08:01 | -31.25647 | 151.47361 | 32280 ft | 391 kts | 205° |
| 2026-04-22 08:02 | -31.30686 | 151.44967 | 32279 ft | 391 kts | 205° |
| 2026-04-22 08:02 | -31.35723 | 151.42570 | 32274 ft | 390 kts | 205° |
| 2026-04-22 08:03 | -31.40766 | 151.40201 | 32279 ft | 391 kts | 204° |
| 2026-04-22 08:03 | -31.45822 | 151.37955 | 32283 ft | 392 kts | 204° |
| 2026-04-22 08:04 | -31.50928 | 151.35700 | 32282 ft | 392 kts | 204° |
| 2026-04-22 08:04 | -31.56032 | 151.33430 | 32274 ft | 392 kts | 204° |
| 2026-04-22 08:05 | -31.61131 | 151.31153 | 32281 ft | 392 kts | 204° |
| 2026-04-22 08:05 | -31.66217 | 151.28877 | 32275 ft | 391 kts | 204° |
| 2026-04-22 08:06 | -31.71251 | 151.26619 | 32289 ft | 390 kts | 204° |
| 2026-04-22 08:06 | -31.76323 | 151.24343 | 32278 ft | 391 kts | 204° |
| 2026-04-22 08:07 | -31.81401 | 151.22064 | 32291 ft | 390 kts | 204° |
| 2026-04-22 08:07 | -31.86472 | 151.19781 | 32296 ft | 390 kts | 204° |
| 2026-04-22 08:08 | -31.91512 | 151.17513 | 32293 ft | 390 kts | 204° |
| 2026-04-22 08:08 | -31.96591 | 151.15228 | 32294 ft | 391 kts | 204° |
| 2026-04-22 08:09 | -32.01659 | 151.12959 | 32282 ft | 385 kts | 204° |
| 2026-04-22 08:09 | -32.04144 | 151.11847 | 32019 ft | 380 kts | 202° |
| 2026-04-22 08:09 | -32.06583 | 151.10755 | 31702 ft | 372 kts | 203° |
| 2026-04-22 08:10 | -32.08986 | 151.09677 | 31324 ft | 367 kts | 202° |
| 2026-04-22 08:10 | -32.11332 | 151.08622 | 30904 ft | 364 kts | 202° |
| 2026-04-22 08:10 | -32.13693 | 151.07560 | 30497 ft | 361 kts | 202° |
| 2026-04-22 08:10 | -32.16028 | 151.06509 | 30080 ft | 358 kts | 202° |
| 2026-04-22 08:11 | -32.18347 | 151.05465 | 29672 ft | 355 kts | 202° |
| 2026-04-22 08:11 | -32.20642 | 151.04430 | 29240 ft | 352 kts | 201° |
| 2026-04-22 08:11 | -32.22924 | 151.03402 | 28819 ft | 350 kts | 201° |
| 2026-04-22 08:11 | -32.25192 | 151.02379 | 28404 ft | 347 kts | 201° |
| 2026-04-22 08:12 | -32.27442 | 151.01363 | 27992 ft | 345 kts | 201° |
| 2026-04-22 08:12 | -32.29674 | 151.00355 | 27579 ft | 342 kts | 201° |
| 2026-04-22 08:12 | -32.31815 | 150.99388 | 27186 ft | 340 kts | 201° |
| 2026-04-22 08:12 | -32.34018 | 150.98393 | 26779 ft | 338 kts | 200° |
| 2026-04-22 08:13 | -32.36208 | 150.97403 | 26370 ft | 336 kts | 200° |
| 2026-04-22 08:13 | -32.38386 | 150.96418 | 25969 ft | 334 kts | 200° |
| 2026-04-22 08:13 | -32.40550 | 150.95438 | 25567 ft | 332 kts | 200° |
| 2026-04-22 08:13 | -32.42700 | 150.94465 | 25171 ft | 330 kts | 200° |
| 2026-04-22 08:14 | -32.44836 | 150.93497 | 24784 ft | 328 kts | 200° |
| 2026-04-22 08:14 | -32.46958 | 150.92539 | 24395 ft | 325 kts | 198° |
| 2026-04-22 08:14 | -32.49144 | 150.91894 | 24014 ft | 323 kts | 188° |
| 2026-04-22 08:14 | -32.51336 | 150.91655 | 23690 ft | 319 kts | 182° |
| 2026-04-22 08:15 | -32.53544 | 150.91801 | 23329 ft | 318 kts | 174° |
| 2026-04-22 08:15 | -32.55733 | 150.92181 | 22981 ft | 318 kts | 172° |
| 2026-04-22 08:15 | -32.57919 | 150.92590 | 22608 ft | 319 kts | 172° |
| 2026-04-22 08:15 | -32.60141 | 150.93008 | 22248 ft | 328 kts | 172° |
| 2026-04-22 08:16 | -32.62411 | 150.93430 | 21866 ft | 331 kts | 172° |
| 2026-04-22 08:16 | -32.64684 | 150.93847 | 21457 ft | 329 kts | 172° |
| 2026-04-22 08:16 | -32.66940 | 150.94258 | 21082 ft | 326 kts | 172° |
| 2026-04-22 08:16 | -32.68421 | 150.94527 | 20832 ft | 324 kts | 172° |
| 2026-04-22 08:17 | -32.71360 | 150.95059 | 20321 ft | 321 kts | 172° |
| 2026-04-22 08:17 | -32.73559 | 150.95455 | 19949 ft | 318 kts | 172° |
| 2026-04-22 08:17 | -32.75742 | 150.95848 | 19579 ft | 316 kts | 172° |
| 2026-04-22 08:17 | -32.77906 | 150.96238 | 19215 ft | 313 kts | 171° |
| 2026-04-22 08:18 | -32.80059 | 150.96625 | 18780 ft | 313 kts | 171° |
| 2026-04-22 08:18 | -32.82217 | 150.97008 | 18375 ft | 313 kts | 171° |
| 2026-04-22 08:18 | -32.83641 | 150.97261 | 18116 ft | 312 kts | 171° |
| 2026-04-22 08:18 | -32.85780 | 150.97639 | 17755 ft | 310 kts | 171° |
| 2026-04-22 08:19 | -32.87904 | 150.98015 | 17391 ft | 308 kts | 171° |
| 2026-04-22 08:19 | -32.90019 | 150.98389 | 17032 ft | 306 kts | 171° |
| 2026-04-22 08:19 | -32.92116 | 150.98761 | 16677 ft | 304 kts | 171° |
| 2026-04-22 08:19 | -32.94878 | 150.99252 | 16208 ft | 302 kts | 171° |
| 2026-04-22 08:20 | -32.96950 | 150.99621 | 15860 ft | 300 kts | 171° |
| 2026-04-22 08:20 | -32.98312 | 150.99863 | 15627 ft | 299 kts | 170° |
| 2026-04-22 08:20 | -33.00361 | 151.00228 | 15277 ft | 297 kts | 170° |
| 2026-04-22 08:20 | -33.02402 | 151.00591 | 14932 ft | 296 kts | 170° |
| 2026-04-22 08:21 | -33.04431 | 151.00952 | 14589 ft | 294 kts | 170° |
| 2026-04-22 08:21 | -33.06449 | 151.01313 | 14250 ft | 292 kts | 170° |
| 2026-04-22 08:21 | -33.09106 | 151.01786 | 13791 ft | 290 kts | 170° |
| 2026-04-22 08:21 | -33.11098 | 151.02141 | 13445 ft | 289 kts | 170° |
| 2026-04-22 08:22 | -33.12440 | 151.02381 | 13225 ft | 288 kts | 170° |
| 2026-04-22 08:22 | -33.14419 | 151.02734 | 12884 ft | 287 kts | 170° |
| 2026-04-22 08:22 | -33.16362 | 151.03081 | 12555 ft | 286 kts | 170° |
| 2026-04-22 08:22 | -33.18323 | 151.03432 | 12215 ft | 285 kts | 170° |
| 2026-04-22 08:23 | -33.20277 | 151.03781 | 11876 ft | 283 kts | 170° |
| 2026-04-22 08:23 | -33.22226 | 151.04130 | 11541 ft | 282 kts | 170° |
| 2026-04-22 08:23 | -33.24165 | 151.04479 | 11181 ft | 282 kts | 170° |
| 2026-04-22 08:23 | -33.26113 | 151.04848 | 10805 ft | 283 kts | 169° |
| 2026-04-22 08:24 | -33.28031 | 151.05218 | 10641 ft | 276 kts | 169° |
| 2026-04-22 08:24 | -33.29905 | 151.05579 | 10503 ft | 269 kts | 169° |
| 2026-04-22 08:24 | -33.32298 | 151.06040 | 10349 ft | 258 kts | 169° |
| 2026-04-22 08:24 | -33.33469 | 151.06264 | 10178 ft | 257 kts | 169° |
| 2026-04-22 08:25 | -33.35225 | 151.06599 | 9923 ft | 254 kts | 169° |
| 2026-04-22 08:25 | -33.36968 | 151.06934 | 9660 ft | 253 kts | 169° |
| 2026-04-22 08:25 | -33.38700 | 151.07267 | 9390 ft | 252 kts | 170° |
| 2026-04-22 08:25 | -33.40425 | 151.07598 | 9103 ft | 252 kts | 169° |
| 2026-04-22 08:26 | -33.42146 | 151.07935 | 8824 ft | 250 kts | 170° |
| 2026-04-22 08:26 | -33.43859 | 151.08262 | 8552 ft | 249 kts | 170° |
| 2026-04-22 08:26 | -33.45567 | 151.08589 | 8297 ft | 248 kts | 170° |
| 2026-04-22 08:26 | -33.47246 | 151.08912 | 8027 ft | 247 kts | 170° |
| 2026-04-22 08:27 | -33.48937 | 151.09236 | 7761 ft | 246 kts | 170° |
| 2026-04-22 08:27 | -33.50625 | 151.09561 | 7511 ft | 245 kts | 170° |
| 2026-04-22 08:27 | -33.52316 | 151.09887 | 7255 ft | 246 kts | 170° |
| 2026-04-22 08:27 | -33.54003 | 151.10212 | 6969 ft | 246 kts | 170° |
| 2026-04-22 08:28 | -33.55727 | 151.10541 | 6462 ft | 254 kts | 170° |
| 2026-04-22 08:28 | -33.57470 | 151.10875 | 6145 ft | 254 kts | 170° |
| 2026-04-22 08:28 | -33.59206 | 151.11212 | 5861 ft | 252 kts | 170° |
| 2026-04-22 08:28 | -33.60932 | 151.11545 | 5574 ft | 251 kts | 171° |
| 2026-04-22 08:29 | -33.62635 | 151.11811 | 5292 ft | 250 kts | 174° |
| 2026-04-22 08:29 | -33.64369 | 151.12002 | 5005 ft | 250 kts | 174° |
| 2026-04-22 08:29 | -33.66075 | 151.12186 | 4879 ft | 238 kts | 174° |
| 2026-04-22 08:29 | -33.67656 | 151.12358 | 4751 ft | 219 kts | 174° |
| 2026-04-22 08:30 | -33.69115 | 151.12524 | 4615 ft | 203 kts | 174° |
| 2026-04-22 08:30 | -33.70466 | 151.12670 | 4457 ft | 189 kts | 174° |
| 2026-04-22 08:30 | -33.71785 | 151.12821 | 4074 ft | 187 kts | 172° |
| 2026-04-22 08:30 | -33.73071 | 151.13113 | 3793 ft | 185 kts | 167° |
| 2026-04-22 08:31 | -33.74300 | 151.13446 | 3616 ft | 177 kts | 167° |
| 2026-04-22 08:31 | -33.75470 | 151.13759 | 3421 ft | 174 kts | 167° |
| 2026-04-22 08:31 | -33.77846 | 151.14388 | 3056 ft | 176 kts | 167° |
| 2026-04-22 08:32 | -33.79018 | 151.14693 | 2877 ft | 169 kts | 168° |
| 2026-04-22 08:32 | -33.80136 | 151.14984 | 2686 ft | 161 kts | 166° |
| 2026-04-22 08:32 | -33.81217 | 151.15265 | 2511 ft | 158 kts | 167° |
| 2026-04-22 08:32 | -33.82286 | 151.15544 | 2388 ft | 156 kts | 167° |
| 2026-04-22 08:33 | -33.83332 | 151.15812 | 2223 ft | 152 kts | 166° |
| 2026-04-22 08:33 | -33.84355 | 151.16079 | 2080 ft | 146 kts | 166° |
| 2026-04-22 08:33 | -33.85323 | 151.16332 | 1899 ft | 140 kts | 167° |
| 2026-04-22 08:33 | -33.86257 | 151.16573 | 1803 ft | 140 kts | 166° |
| 2026-04-22 08:34 | -33.87222 | 151.16823 | 1646 ft | 144 kts | 166° |
| 2026-04-22 08:34 | -33.88190 | 151.17075 | 1457 ft | 141 kts | 166° |
| 2026-04-22 08:34 | -33.89145 | 151.17322 | 1276 ft | 141 kts | 166° |
| 2026-04-22 08:34 | -33.90100 | 151.17570 | 1096 ft | 141 kts | 166° |
| 2026-04-22 08:35 | -33.91057 | 151.17820 | 904 ft | 141 kts | 166° |
| 2026-04-22 08:35 | -33.92015 | 151.18075 | 719 ft | 141 kts | 167° |
| 2026-04-22 08:35 | -33.92976 | 151.18316 | 519 ft | 141 kts | 167° |
| 2026-04-22 08:35 | -33.93922 | 151.18561 | 324 ft | 142 kts | 167° |
| 2026-04-22 08:36 | -33.94895 | 151.18814 | 110 ft | 145 kts | 167° |
| 2026-04-22 08:36 | -33.95836 | 151.19057 | 28 ft | 128 kts | 167° |
| 2026-04-22 08:36 | -33.96589 | 151.19252 | 23 ft | 93 kts | 167° |
| 2026-04-22 08:36 | -33.96966 | 151.19348 | 27 ft | 26 kts | 168° |
| 2026-04-22 08:37 | -33.97048 | 151.19362 | 24 ft | 11 kts | 186° |
| 2026-04-22 08:37 | -33.97104 | 151.19307 | 27 ft | 11 kts | 251° |
| 2026-04-22 08:37 | -33.97122 | 151.19219 | 29 ft | 11 kts | 257° |
| 2026-04-22 08:37 | -33.97102 | 151.19143 | 29 ft | 10 kts | 322° |
| 2026-04-22 08:38 | -33.97033 | 151.19121 | 29 ft | 10 kts | 348° |
| 2026-04-22 08:38 | -33.96964 | 151.19103 | 29 ft | 10 kts | 348° |
| 2026-04-22 08:38 | -33.96897 | 151.19085 | 29 ft | 10 kts | 348° |
| 2026-04-22 08:38 | -33.96830 | 151.19068 | 29 ft | 11 kts | 348° |
| 2026-04-22 08:39 | -33.96744 | 151.19071 | 29 ft | 15 kts | 11° |
| 2026-04-22 08:39 | -33.96618 | 151.19057 | 29 ft | 23 kts | 347° |
| 2026-04-22 08:39 | -33.96437 | 151.19010 | 29 ft | 30 kts | 348° |
| 2026-04-22 08:39 | -33.96207 | 151.18951 | 29 ft | 37 kts | 348° |
| 2026-04-22 08:40 | -33.95955 | 151.18885 | 29 ft | 37 kts | 348° |
| 2026-04-22 08:40 | -33.95708 | 151.18821 | 29 ft | 35 kts | 347° |
| 2026-04-22 08:40 | -33.95499 | 151.18766 | 29 ft | 29 kts | 347° |
| 2026-04-22 08:40 | -33.95309 | 151.18714 | 29 ft | 27 kts | 342° |
| 2026-04-22 08:41 | -33.95168 | 151.18583 | 29 ft | 25 kts | 314° |
| 2026-04-22 08:41 | -33.95120 | 151.18403 | 29 ft | 24 kts | 259° |
| 2026-04-22 08:41 | -33.95154 | 151.18215 | 29 ft | 23 kts | 257° |
| 2026-04-22 08:41 | -33.95185 | 151.18033 | 29 ft | 22 kts | 265° |
| 2026-04-22 08:42 | -33.95080 | 151.17937 | 29 ft | 21 kts | 348° |
| 2026-04-22 08:42 | -33.94938 | 151.17901 | 29 ft | 21 kts | 348° |
| 2026-04-22 08:42 | -33.94800 | 151.17866 | 29 ft | 20 kts | 348° |
| 2026-04-22 08:42 | -33.94666 | 151.17831 | 29 ft | 19 kts | 348° |
| 2026-04-22 08:43 | -33.94536 | 151.17796 | 29 ft | 19 kts | 346° |
| 2026-04-22 08:43 | -33.94411 | 151.17759 | 29 ft | 18 kts | 346° |
| 2026-04-22 08:43 | -33.94291 | 151.17721 | 29 ft | 18 kts | 347° |
| 2026-04-22 08:43 | -33.94174 | 151.17686 | 28 ft | 17 kts | 346° |
| 2026-04-22 08:44 | -33.94062 | 151.17653 | 27 ft | 16 kts | 346° |
| 2026-04-22 08:44 | -33.93953 | 151.17625 | 28 ft | 16 kts | 347° |
| 2026-04-22 08:44 | -33.93859 | 151.17600 | 28 ft | 13 kts | 347° |
| 2026-04-22 08:44 | -33.93772 | 151.17577 | 28 ft | 13 kts | 349° |
| 2026-04-22 08:45 | -33.93684 | 151.17562 | 28 ft | 13 kts | 9° |
| 2026-04-22 08:45 | -33.93639 | 151.17641 | 29 ft | 12 kts | 87° |
| 2026-04-22 08:45 | -33.93652 | 151.17741 | 29 ft | 12 kts | 100° |
| 2026-04-22 08:45 | -33.93644 | 151.17810 | 29 ft | 8 kts | 28° |
| 2026-04-22 08:46 | -33.93589 | 151.17824 | 29 ft | 8 kts | 9° |
| 2026-04-22 08:46 | -33.93536 | 151.17835 | 29 ft | 8 kts | 10° |
| 2026-04-22 08:46 | -33.93485 | 151.17846 | 29 ft | 6 kts | 10° |
| 2026-04-22 08:46 | -33.93468 | 151.17883 | 29 ft | 6 kts | 99° |
| 2026-04-22 08:47 | -33.93472 | 151.17915 | 29 ft | 3 kts | 99° |
| 2026-04-22 08:47 | -33.93473 | 151.17920 | 29 ft | 0 kts | 100° |